sensor_id;sensor_type;location;lat;lon;timestamp;temperature;humidity
68977;SHT31;56029;52.568;13.588;2022-10-04T00:02:24;12.76;95.91
68977;SHT31;56029;52.568;13.588;2022-10-04T00:04:54;12.73;95.91
68977;SHT31;56029;52.568;13.588;2022-10-04T00:07:25;12.71;95.88
68977;SHT31;56029;52.568;13.588;2022-10-04T00:09:56;12.71;96.01
68977;SHT31;56029;52.568;13.588;2022-10-04T00:12:37;12.71;96.08
68977;SHT31;56029;52.568;13.588;2022-10-04T00:15:06;12.68;95.64
68977;SHT31;56029;52.568;13.588;2022-10-04T00:17:42;12.67;95.76
68977;SHT31;56029;52.568;13.588;2022-10-04T00:25:50;12.67;95.31
68977;SHT31;56029;52.568;13.588;2022-10-04T00:36:53;12.65;94.85
68977;SHT31;56029;52.568;13.588;2022-10-04T00:44:45;12.57;95.03
68977;SHT31;56029;52.568;13.588;2022-10-04T00:50:12;12.54;94.68
68977;SHT31;56029;52.568;13.588;2022-10-04T00:52:44;12.57;94.78
68977;SHT31;56029;52.568;13.588;2022-10-04T00:55:42;12.54;94.82
68977;SHT31;56029;52.568;13.588;2022-10-04T00:58:13;12.51;94.72
68977;SHT31;56029;52.568;13.588;2022-10-04T01:00:40;12.50;94.88
68977;SHT31;56029;52.568;13.588;2022-10-04T01:03:15;12.47;94.88
68977;SHT31;56029;52.568;13.588;2022-10-04T01:05:52;12.47;94.62
68977;SHT31;56029;52.568;13.588;2022-10-04T01:08:27;12.44;94.74
68977;SHT31;56029;52.568;13.588;2022-10-04T01:10:58;12.43;94.62
68977;SHT31;56029;52.568;13.588;2022-10-04T01:13:34;12.43;94.58
68977;SHT31;56029;52.568;13.588;2022-10-04T01:16:17;12.43;94.67
68977;SHT31;56029;52.568;13.588;2022-10-04T01:18:44;12.46;94.54
68977;SHT31;56029;52.568;13.588;2022-10-04T01:26:37;12.33;94.91
68977;SHT31;56029;52.568;13.588;2022-10-04T01:29:16;12.33;94.81
68977;SHT31;56029;52.568;13.588;2022-10-04T01:31:44;12.30;94.99
68977;SHT31;56029;52.568;13.588;2022-10-04T01:34:21;12.22;95.32
68977;SHT31;56029;52.568;13.588;2022-10-04T01:36:49;12.19;95.56
68977;SHT31;56029;52.568;13.588;2022-10-04T01:39:18;12.15;95.60
68977;SHT31;56029;52.568;13.588;2022-10-04T01:41:55;12.12;95.77
68977;SHT31;56029;52.568;13.588;2022-10-04T01:47:08;12.06;96.02
68977;SHT31;56029;52.568;13.588;2022-10-04T01:49:41;12.09;95.96
68977;SHT31;56029;52.568;13.588;2022-10-04T01:52:17;12.06;95.93
68977;SHT31;56029;52.568;13.588;2022-10-04T01:54:47;12.06;96.03
68977;SHT31;56029;52.568;13.588;2022-10-04T01:57:21;12.02;96.08
68977;SHT31;56029;52.568;13.588;2022-10-04T01:59:51;12.09;95.97
68977;SHT31;56029;52.568;13.588;2022-10-04T02:04:56;12.08;95.72
68977;SHT31;56029;52.568;13.588;2022-10-04T02:07:24;12.09;95.57
68977;SHT31;56029;52.568;13.588;2022-10-04T02:09:59;12.06;95.65
68977;SHT31;56029;52.568;13.588;2022-10-04T02:12:28;12.05;95.46
68977;SHT31;56029;52.568;13.588;2022-10-04T02:14:57;12.06;95.50
68977;SHT31;56029;52.568;13.588;2022-10-04T02:17:28;12.08;95.02
68977;SHT31;56029;52.568;13.588;2022-10-04T02:19:55;12.09;95.14
68977;SHT31;56029;52.568;13.588;2022-10-04T02:22:23;12.05;95.19
68977;SHT31;56029;52.568;13.588;2022-10-04T02:24:49;12.01;95.23
68977;SHT31;56029;52.568;13.588;2022-10-04T02:27:15;11.92;95.35
68977;SHT31;56029;52.568;13.588;2022-10-04T02:29:41;11.83;95.40
68977;SHT31;56029;52.568;13.588;2022-10-04T02:32:07;11.77;95.64
68977;SHT31;56029;52.568;13.588;2022-10-04T02:34:53;11.65;96.04
68977;SHT31;56029;52.568;13.588;2022-10-04T02:37:21;11.62;95.91
68977;SHT31;56029;52.568;13.588;2022-10-04T02:40:09;11.55;96.01
68977;SHT31;56029;52.568;13.588;2022-10-04T02:42:43;11.53;96.11
68977;SHT31;56029;52.568;13.588;2022-10-04T02:45:22;11.45;96.22
68977;SHT31;56029;52.568;13.588;2022-10-04T02:48:01;11.38;96.38
68977;SHT31;56029;52.568;13.588;2022-10-04T02:50:35;11.41;96.17
68977;SHT31;56029;52.568;13.588;2022-10-04T02:53:17;11.31;96.33
68977;SHT31;56029;52.568;13.588;2022-10-04T02:55:44;11.30;96.41
68977;SHT31;56029;52.568;13.588;2022-10-04T02:58:14;11.27;96.56
68977;SHT31;56029;52.568;13.588;2022-10-04T03:00:47;11.19;96.70
68977;SHT31;56029;52.568;13.588;2022-10-04T03:03:18;11.17;96.91
68977;SHT31;56029;52.568;13.588;2022-10-04T03:06:05;11.17;96.84
68977;SHT31;56029;52.568;13.588;2022-10-04T03:11:15;11.10;96.99
68977;SHT31;56029;52.568;13.588;2022-10-04T03:13:45;11.12;97.02
68977;SHT31;56029;52.568;13.588;2022-10-04T03:16:11;11.07;96.91
68977;SHT31;56029;52.568;13.588;2022-10-04T03:18:38;11.07;96.93
68977;SHT31;56029;52.568;13.588;2022-10-04T03:21:06;11.16;96.70
68977;SHT31;56029;52.568;13.588;2022-10-04T03:23:32;11.23;96.46
68977;SHT31;56029;52.568;13.588;2022-10-04T03:28:46;11.31;96.06
68977;SHT31;56029;52.568;13.588;2022-10-04T03:31:12;11.35;95.75
68977;SHT31;56029;52.568;13.588;2022-10-04T03:33:39;11.43;95.62
68977;SHT31;56029;52.568;13.588;2022-10-04T03:36:05;11.48;95.26
68977;SHT31;56029;52.568;13.588;2022-10-04T03:38:33;11.51;95.20
68977;SHT31;56029;52.568;13.588;2022-10-04T03:41:00;11.55;95.10
68977;SHT31;56029;52.568;13.588;2022-10-04T03:43:32;11.58;95.16
68977;SHT31;56029;52.568;13.588;2022-10-04T03:46:00;11.60;95.12
68977;SHT31;56029;52.568;13.588;2022-10-04T03:48:42;11.61;94.95
68977;SHT31;56029;52.568;13.588;2022-10-04T03:51:18;11.67;94.84
68977;SHT31;56029;52.568;13.588;2022-10-04T03:53:46;11.68;94.57
68977;SHT31;56029;52.568;13.588;2022-10-04T03:56:19;11.70;94.57
68977;SHT31;56029;52.568;13.588;2022-10-04T03:58:48;11.67;94.56
68977;SHT31;56029;52.568;13.588;2022-10-04T04:06:31;11.60;94.87
68977;SHT31;56029;52.568;13.588;2022-10-04T04:08:59;11.54;94.91
68977;SHT31;56029;52.568;13.588;2022-10-04T04:11:26;11.45;95.43
68977;SHT31;56029;52.568;13.588;2022-10-04T04:14:07;11.38;95.81
68977;SHT31;56029;52.568;13.588;2022-10-04T04:16:35;11.30;96.13
68977;SHT31;56029;52.568;13.588;2022-10-04T04:19:03;11.23;96.82
68977;SHT31;56029;52.568;13.588;2022-10-04T04:21:30;11.17;97.14
68977;SHT31;56029;52.568;13.588;2022-10-04T04:24:05;11.07;97.58
68977;SHT31;56029;52.568;13.588;2022-10-04T04:26:42;10.97;98.00
68977;SHT31;56029;52.568;13.588;2022-10-04T04:31:42;10.85;98.63
68977;SHT31;56029;52.568;13.588;2022-10-04T04:34:24;10.76;98.79
68977;SHT31;56029;52.568;13.588;2022-10-04T04:36:56;10.77;99.22
68977;SHT31;56029;52.568;13.588;2022-10-04T04:39:25;10.77;99.27
68977;SHT31;56029;52.568;13.588;2022-10-04T04:42:20;10.79;99.48
68977;SHT31;56029;52.568;13.588;2022-10-04T04:44:55;10.75;99.58
68977;SHT31;56029;52.568;13.588;2022-10-04T04:47:25;10.66;99.95
68977;SHT31;56029;52.568;13.588;2022-10-04T04:49:52;10.59;99.99
68977;SHT31;56029;52.568;13.588;2022-10-04T04:52:21;10.54;99.99
68977;SHT31;56029;52.568;13.588;2022-10-04T04:54:50;10.54;99.99
68977;SHT31;56029;52.568;13.588;2022-10-04T04:57:17;10.51;99.99
68977;SHT31;56029;52.568;13.588;2022-10-04T04:59:47;10.51;99.99
68977;SHT31;56029;52.568;13.588;2022-10-04T05:02:35;10.52;99.99
68977;SHT31;56029;52.568;13.588;2022-10-04T05:07:43;10.49;99.99
68977;SHT31;56029;52.568;13.588;2022-10-04T05:10:27;10.41;99.99
68977;SHT31;56029;52.568;13.588;2022-10-04T05:12:55;10.34;99.99
68977;SHT31;56029;52.568;13.588;2022-10-04T05:15:21;10.34;99.99
68977;SHT31;56029;52.568;13.588;2022-10-04T05:17:46;10.35;99.99
68977;SHT31;56029;52.568;13.588;2022-10-04T05:20:13;10.35;99.99
68977;SHT31;56029;52.568;13.588;2022-10-04T05:22:42;10.33;99.99
68977;SHT31;56029;52.568;13.588;2022-10-04T05:25:20;10.33;99.99
68977;SHT31;56029;52.568;13.588;2022-10-04T05:27:49;10.34;99.99
68977;SHT31;56029;52.568;13.588;2022-10-04T05:33:05;10.34;99.99
68977;SHT31;56029;52.568;13.588;2022-10-04T05:38:25;10.40;99.99
68977;SHT31;56029;52.568;13.588;2022-10-04T05:41:07;10.40;99.99
68977;SHT31;56029;52.568;13.588;2022-10-04T05:46:20;10.52;99.99
68977;SHT31;56029;52.568;13.588;2022-10-04T05:49:00;10.55;99.99
68977;SHT31;56029;52.568;13.588;2022-10-04T05:51:29;10.59;99.99
68977;SHT31;56029;52.568;13.588;2022-10-04T05:54:00;10.64;99.99
68977;SHT31;56029;52.568;13.588;2022-10-04T05:56:39;10.68;99.99
68977;SHT31;56029;52.568;13.588;2022-10-04T05:59:26;10.75;99.77
68977;SHT31;56029;52.568;13.588;2022-10-04T06:05:07;10.85;99.40
68977;SHT31;56029;52.568;13.588;2022-10-04T06:07:41;10.93;99.19
68977;SHT31;56029;52.568;13.588;2022-10-04T06:15:56;11.22;97.78
68977;SHT31;56029;52.568;13.588;2022-10-04T06:21:36;11.45;96.87
68977;SHT31;56029;52.568;13.588;2022-10-04T06:24:14;11.54;96.32
68977;SHT31;56029;52.568;13.588;2022-10-04T06:26:46;11.67;96.19
68977;SHT31;56029;52.568;13.588;2022-10-04T06:29:16;11.78;95.61
68977;SHT31;56029;52.568;13.588;2022-10-04T06:37:34;12.12;94.21
68977;SHT31;56029;52.568;13.588;2022-10-04T06:48:37;12.54;92.69
68977;SHT31;56029;52.568;13.588;2022-10-04T06:51:18;12.63;92.55
68977;SHT31;56029;52.568;13.588;2022-10-04T06:59:45;12.87;91.34
68977;SHT31;56029;52.568;13.588;2022-10-04T07:02:40;12.98;90.78
68977;SHT31;56029;52.568;13.588;2022-10-04T07:05:29;13.12;90.15
68977;SHT31;56029;52.568;13.588;2022-10-04T07:08:20;12.98;90.22
68977;SHT31;56029;52.568;13.588;2022-10-04T07:16:39;12.95;90.26
68977;SHT31;56029;52.568;13.588;2022-10-04T07:21:42;12.87;91.15
68977;SHT31;56029;52.568;13.588;2022-10-04T07:24:12;12.73;91.18
68977;SHT31;56029;52.568;13.588;2022-10-04T07:26:50;12.65;90.91
68977;SHT31;56029;52.568;13.588;2022-10-04T07:29:36;12.67;91.30
68977;SHT31;56029;52.568;13.588;2022-10-04T07:34:32;12.77;91.37
68977;SHT31;56029;52.568;13.588;2022-10-04T07:37:06;12.74;90.63
68977;SHT31;56029;52.568;13.588;2022-10-04T07:39:46;12.74;91.15
68977;SHT31;56029;52.568;13.588;2022-10-04T07:42:21;12.73;90.47
68977;SHT31;56029;52.568;13.588;2022-10-04T07:47:32;12.59;90.93
68977;SHT31;56029;52.568;13.588;2022-10-04T07:49:58;12.56;90.96
68977;SHT31;56029;52.568;13.588;2022-10-04T07:52:55;12.59;91.58
68977;SHT31;56029;52.568;13.588;2022-10-04T07:55:31;12.56;91.63
68977;SHT31;56029;52.568;13.588;2022-10-04T08:01:45;12.61;91.60
68977;SHT31;56029;52.568;13.588;2022-10-04T08:04:24;12.60;91.59
68977;SHT31;56029;52.568;13.588;2022-10-04T08:06:57;12.67;92.05
68977;SHT31;56029;52.568;13.588;2022-10-04T08:09:51;12.63;91.75
68977;SHT31;56029;52.568;13.588;2022-10-04T08:12:49;12.59;92.05
68977;SHT31;56029;52.568;13.588;2022-10-04T08:21:06;12.77;91.60
68977;SHT31;56029;52.568;13.588;2022-10-04T08:38:02;13.18;90.66
68977;SHT31;56029;52.568;13.588;2022-10-04T08:40:58;13.20;89.56
68977;SHT31;56029;52.568;13.588;2022-10-04T08:43:43;13.19;89.61
68977;SHT31;56029;52.568;13.588;2022-10-04T08:46:32;13.18;89.48
68977;SHT31;56029;52.568;13.588;2022-10-04T08:52:11;13.29;89.37
68977;SHT31;56029;52.568;13.588;2022-10-04T08:58:02;13.50;88.52
68977;SHT31;56029;52.568;13.588;2022-10-04T09:05:59;13.74;87.74
68977;SHT31;56029;52.568;13.588;2022-10-04T09:15:15;13.90;86.28
68977;SHT31;56029;52.568;13.588;2022-10-04T09:17:52;13.94;87.52
68977;SHT31;56029;52.568;13.588;2022-10-04T09:20:23;13.94;85.52
68977;SHT31;56029;52.568;13.588;2022-10-04T09:23:13;14.01;85.77
68977;SHT31;56029;52.568;13.588;2022-10-04T09:26:00;14.11;85.23
68977;SHT31;56029;52.568;13.588;2022-10-04T09:29:05;14.20;85.37
68977;SHT31;56029;52.568;13.588;2022-10-04T09:31:49;14.34;84.11
68977;SHT31;56029;52.568;13.588;2022-10-04T09:34:39;14.62;84.34
68977;SHT31;56029;52.568;13.588;2022-10-04T09:37:36;14.75;83.26
68977;SHT31;56029;52.568;13.588;2022-10-04T09:48:32;15.14;81.01
68977;SHT31;56029;52.568;13.588;2022-10-04T10:02:36;14.94;82.24
68977;SHT31;56029;52.568;13.588;2022-10-04T10:08:12;15.19;82.06
68977;SHT31;56029;52.568;13.588;2022-10-04T10:10:54;15.23;81.57
68977;SHT31;56029;52.568;13.588;2022-10-04T10:14:02;15.30;80.79
68977;SHT31;56029;52.568;13.588;2022-10-04T10:19:59;15.52;80.18
68977;SHT31;56029;52.568;13.588;2022-10-04T10:22:42;15.50;79.50
68977;SHT31;56029;52.568;13.588;2022-10-04T10:25:46;15.73;79.04
68977;SHT31;56029;52.568;13.588;2022-10-04T10:34:20;15.58;78.84
68977;SHT31;56029;52.568;13.588;2022-10-04T10:37:13;15.50;77.99
68977;SHT31;56029;52.568;13.588;2022-10-04T10:39:56;15.55;79.42
68977;SHT31;56029;52.568;13.588;2022-10-04T10:45:13;15.66;79.55
68977;SHT31;56029;52.568;13.588;2022-10-04T10:47:52;15.73;79.96
68977;SHT31;56029;52.568;13.588;2022-10-04T10:59:51;16.10;78.50
68977;SHT31;56029;52.568;13.588;2022-10-04T11:02:39;16.05;78.14
68977;SHT31;56029;52.568;13.588;2022-10-04T11:05:41;15.91;78.14
68977;SHT31;56029;52.568;13.588;2022-10-04T11:14:45;16.23;77.45
68977;SHT31;56029;52.568;13.588;2022-10-04T11:23:32;15.85;77.95
68977;SHT31;56029;52.568;13.588;2022-10-04T11:34:50;16.17;76.91
68977;SHT31;56029;52.568;13.588;2022-10-04T11:37:49;16.26;76.44
68977;SHT31;56029;52.568;13.588;2022-10-04T11:40:49;16.33;76.79
68977;SHT31;56029;52.568;13.588;2022-10-04T11:49:22;16.14;75.31
68977;SHT31;56029;52.568;13.588;2022-10-04T11:55:12;15.79;76.79
68977;SHT31;56029;52.568;13.588;2022-10-04T11:57:50;15.89;77.67
68977;SHT31;56029;52.568;13.588;2022-10-04T12:00:22;15.83;77.51
68977;SHT31;56029;52.568;13.588;2022-10-04T12:02:59;15.86;78.71
68977;SHT31;56029;52.568;13.588;2022-10-04T12:08:25;15.83;79.44
68977;SHT31;56029;52.568;13.588;2022-10-04T12:14:40;15.71;79.78
68977;SHT31;56029;52.568;13.588;2022-10-04T12:19:50;15.81;80.10
68977;SHT31;56029;52.568;13.588;2022-10-04T12:25:37;15.93;77.98
68977;SHT31;56029;52.568;13.588;2022-10-04T12:28:36;16.09;78.25
68977;SHT31;56029;52.568;13.588;2022-10-04T12:36:22;16.02;78.65
68977;SHT31;56029;52.568;13.588;2022-10-04T12:39:13;16.13;77.51
68977;SHT31;56029;52.568;13.588;2022-10-04T12:41:54;16.02;77.19
68977;SHT31;56029;52.568;13.588;2022-10-04T12:44:33;16.10;77.80
68977;SHT31;56029;52.568;13.588;2022-10-04T12:50:09;16.36;76.96
68977;SHT31;56029;52.568;13.588;2022-10-04T12:53:12;16.37;76.59
68977;SHT31;56029;52.568;13.588;2022-10-04T12:58:24;16.63;75.35
68977;SHT31;56029;52.568;13.588;2022-10-04T13:01:08;16.67;76.75
68977;SHT31;56029;52.568;13.588;2022-10-04T13:03:57;16.82;75.56
68977;SHT31;56029;52.568;13.588;2022-10-04T13:06:37;16.95;76.07
68977;SHT31;56029;52.568;13.588;2022-10-04T13:09:17;17.11;76.03
68977;SHT31;56029;52.568;13.588;2022-10-04T13:12:09;17.25;75.04
68977;SHT31;56029;52.568;13.588;2022-10-04T13:15:01;17.33;76.13
68977;SHT31;56029;52.568;13.588;2022-10-04T13:20:36;17.29;74.74
68977;SHT31;56029;52.568;13.588;2022-10-04T13:28:27;17.37;75.16
68977;SHT31;56029;52.568;13.588;2022-10-04T13:31:19;17.35;74.09
68977;SHT31;56029;52.568;13.588;2022-10-04T13:34:04;17.05;74.30
68977;SHT31;56029;52.568;13.588;2022-10-04T13:36:54;16.82;74.85
68977;SHT31;56029;52.568;13.588;2022-10-04T13:42:40;16.78;75.91
68977;SHT31;56029;52.568;13.588;2022-10-04T13:50:59;16.88;74.46
68977;SHT31;56029;52.568;13.588;2022-10-04T13:56:52;16.91;74.28
68977;SHT31;56029;52.568;13.588;2022-10-04T14:04:55;17.32;75.34
68977;SHT31;56029;52.568;13.588;2022-10-04T14:13:30;17.80;71.92
68977;SHT31;56029;52.568;13.588;2022-10-04T14:16:36;17.77;70.98
68977;SHT31;56029;52.568;13.588;2022-10-04T14:19:39;17.90;70.83
68977;SHT31;56029;52.568;13.588;2022-10-04T14:22:20;17.97;72.07
68977;SHT31;56029;52.568;13.588;2022-10-04T14:28:13;18.21;69.64
68977;SHT31;56029;52.568;13.588;2022-10-04T14:33:51;18.26;67.65
68977;SHT31;56029;52.568;13.588;2022-10-04T14:39:41;18.28;67.24
68977;SHT31;56029;52.568;13.588;2022-10-04T14:45:40;18.01;67.07
68977;SHT31;56029;52.568;13.588;2022-10-04T14:51:05;17.62;69.05
68977;SHT31;56029;52.568;13.588;2022-10-04T15:04:57;17.40;71.58
68977;SHT31;56029;52.568;13.588;2022-10-04T15:07:38;17.40;70.47
68977;SHT31;56029;52.568;13.588;2022-10-04T15:10:27;17.36;72.14
68977;SHT31;56029;52.568;13.588;2022-10-04T15:15:33;17.32;72.08
68977;SHT31;56029;52.568;13.588;2022-10-04T15:18:31;17.22;72.71
68977;SHT31;56029;52.568;13.588;2022-10-04T15:21:19;17.07;73.39
68977;SHT31;56029;52.568;13.588;2022-10-04T15:23:59;16.94;74.04
68977;SHT31;56029;52.568;13.588;2022-10-04T15:29:25;16.70;75.01
68977;SHT31;56029;52.568;13.588;2022-10-04T15:32:19;16.61;74.85
68977;SHT31;56029;52.568;13.588;2022-10-04T15:35:18;16.56;75.98
68977;SHT31;56029;52.568;13.588;2022-10-04T15:37:56;16.47;76.43
68977;SHT31;56029;52.568;13.588;2022-10-04T15:40:53;16.40;76.67
68977;SHT31;56029;52.568;13.588;2022-10-04T15:43:25;16.34;77.29
68977;SHT31;56029;52.568;13.588;2022-10-04T16:00:25;15.73;80.49
68977;SHT31;56029;52.568;13.588;2022-10-04T16:06:04;15.66;80.64
68977;SHT31;56029;52.568;13.588;2022-10-04T16:08:36;15.63;81.34
68977;SHT31;56029;52.568;13.588;2022-10-04T16:19:07;15.34;82.41
68977;SHT31;56029;52.568;13.588;2022-10-04T16:29:38;14.89;83.45
68977;SHT31;56029;52.568;13.588;2022-10-04T16:32:14;14.80;83.67
68977;SHT31;56029;52.568;13.588;2022-10-04T16:40:01;14.54;84.45
68977;SHT31;56029;52.568;13.588;2022-10-04T16:48:10;14.27;85.50
68977;SHT31;56029;52.568;13.588;2022-10-04T16:51:12;14.18;85.74
68977;SHT31;56029;52.568;13.588;2022-10-04T16:56:31;13.98;86.55
68977;SHT31;56029;52.568;13.588;2022-10-04T16:59:10;13.91;87.22
68977;SHT31;56029;52.568;13.588;2022-10-04T17:09:46;13.62;87.76
68977;SHT31;56029;52.568;13.588;2022-10-04T17:12:47;13.55;87.83
68977;SHT31;56029;52.568;13.588;2022-10-04T17:15:23;13.46;88.39
68977;SHT31;56029;52.568;13.588;2022-10-04T17:23:18;13.25;89.07
68977;SHT31;56029;52.568;13.588;2022-10-04T17:26:02;13.20;89.30
68977;SHT31;56029;52.568;13.588;2022-10-04T17:28:44;13.11;89.80
68977;SHT31;56029;52.568;13.588;2022-10-04T17:31:15;13.02;90.65
68977;SHT31;56029;52.568;13.588;2022-10-04T17:34:20;12.92;90.82
68977;SHT31;56029;52.568;13.588;2022-10-04T17:37:10;12.83;91.01
68977;SHT31;56029;52.568;13.588;2022-10-04T17:45:24;12.64;91.27
68977;SHT31;56029;52.568;13.588;2022-10-04T17:48:06;12.57;91.71
68977;SHT31;56029;52.568;13.588;2022-10-04T17:51:07;12.49;92.05
68977;SHT31;56029;52.568;13.588;2022-10-04T17:54:00;12.47;92.01
68977;SHT31;56029;52.568;13.588;2022-10-04T17:56:50;12.43;92.10
68977;SHT31;56029;52.568;13.588;2022-10-04T17:59:23;12.34;92.41
68977;SHT31;56029;52.568;13.588;2022-10-04T18:01:58;12.28;92.63
68977;SHT31;56029;52.568;13.588;2022-10-04T18:04:28;12.23;92.91
68977;SHT31;56029;52.568;13.588;2022-10-04T18:07:07;12.19;93.07
68977;SHT31;56029;52.568;13.588;2022-10-04T18:09:44;12.18;93.09
68977;SHT31;56029;52.568;13.588;2022-10-04T18:12:33;12.15;93.27
68977;SHT31;56029;52.568;13.588;2022-10-04T18:17:51;12.12;92.97
68977;SHT31;56029;52.568;13.588;2022-10-04T18:20:28;12.08;93.19
68977;SHT31;56029;52.568;13.588;2022-10-04T18:23:00;12.05;93.21
68977;SHT31;56029;52.568;13.588;2022-10-04T18:25:29;12.01;93.19
68977;SHT31;56029;52.568;13.588;2022-10-04T18:33:00;11.91;93.70
68977;SHT31;56029;52.568;13.588;2022-10-04T18:35:30;11.88;93.69
68977;SHT31;56029;52.568;13.588;2022-10-04T18:38:14;11.83;93.77
68977;SHT31;56029;52.568;13.588;2022-10-04T18:41:02;11.78;94.03
68977;SHT31;56029;52.568;13.588;2022-10-04T18:43:49;11.72;94.27
68977;SHT31;56029;52.568;13.588;2022-10-04T18:46:18;11.74;94.45
68977;SHT31;56029;52.568;13.588;2022-10-04T18:48:55;11.70;94.42
68977;SHT31;56029;52.568;13.588;2022-10-04T18:51:27;11.68;94.55
68977;SHT31;56029;52.568;13.588;2022-10-04T18:54:11;11.67;94.63
68977;SHT31;56029;52.568;13.588;2022-10-04T18:59:44;11.61;94.76
68977;SHT31;56029;52.568;13.588;2022-10-04T19:02:50;11.60;94.86
68977;SHT31;56029;52.568;13.588;2022-10-04T19:05:19;11.58;95.01
68977;SHT31;56029;52.568;13.588;2022-10-04T19:16:05;11.53;94.90
68977;SHT31;56029;52.568;13.588;2022-10-04T19:21:27;11.48;94.86
68977;SHT31;56029;52.568;13.588;2022-10-04T19:24:06;11.47;95.09
68977;SHT31;56029;52.568;13.588;2022-10-04T19:26:42;11.47;94.90
68977;SHT31;56029;52.568;13.588;2022-10-04T19:29:32;11.45;94.84
68977;SHT31;56029;52.568;13.588;2022-10-04T19:32:27;11.43;94.85
68977;SHT31;56029;52.568;13.588;2022-10-04T19:41:13;11.37;94.83
68977;SHT31;56029;52.568;13.588;2022-10-04T19:43:45;11.34;94.81
68977;SHT31;56029;52.568;13.588;2022-10-04T19:49:00;11.28;94.66
68977;SHT31;56029;52.568;13.588;2022-10-04T19:51:42;11.28;94.69
68977;SHT31;56029;52.568;13.588;2022-10-04T19:54:11;11.22;94.85
68977;SHT31;56029;52.568;13.588;2022-10-04T19:56:45;11.22;94.88
68977;SHT31;56029;52.568;13.588;2022-10-04T19:59:17;11.22;94.97
68977;SHT31;56029;52.568;13.588;2022-10-04T20:01:44;11.19;94.86
68977;SHT31;56029;52.568;13.588;2022-10-04T20:04:12;11.17;94.80
68977;SHT31;56029;52.568;13.588;2022-10-04T20:06:58;11.14;94.75
68977;SHT31;56029;52.568;13.588;2022-10-04T20:12:28;11.06;94.73
68977;SHT31;56029;52.568;13.588;2022-10-04T20:17:42;11.03;94.87
68977;SHT31;56029;52.568;13.588;2022-10-04T20:20:12;10.99;95.00
68977;SHT31;56029;52.568;13.588;2022-10-04T20:28:07;10.95;94.93
68977;SHT31;56029;52.568;13.588;2022-10-04T20:30:55;10.88;94.98
68977;SHT31;56029;52.568;13.588;2022-10-04T20:39:00;10.72;95.39
68977;SHT31;56029;52.568;13.588;2022-10-04T20:44:02;10.68;95.58
68977;SHT31;56029;52.568;13.588;2022-10-04T20:46:32;10.65;95.65
68977;SHT31;56029;52.568;13.588;2022-10-04T20:49:04;10.66;95.56
68977;SHT31;56029;52.568;13.588;2022-10-04T20:51:36;10.66;95.47
68977;SHT31;56029;52.568;13.588;2022-10-04T20:54:01;10.65;95.45
68977;SHT31;56029;52.568;13.588;2022-10-04T20:56:29;10.65;95.45
68977;SHT31;56029;52.568;13.588;2022-10-04T20:58:57;10.65;95.38
68977;SHT31;56029;52.568;13.588;2022-10-04T21:01:31;10.62;95.27
68977;SHT31;56029;52.568;13.588;2022-10-04T21:04:20;10.61;95.25
68977;SHT31;56029;52.568;13.588;2022-10-04T21:07:08;10.56;95.31
68977;SHT31;56029;52.568;13.588;2022-10-04T21:09:38;10.54;95.43
68977;SHT31;56029;52.568;13.588;2022-10-04T21:12:06;10.54;95.51
68977;SHT31;56029;52.568;13.588;2022-10-04T21:17:41;10.46;95.60
68977;SHT31;56029;52.568;13.588;2022-10-04T21:20:40;10.44;95.75
68977;SHT31;56029;52.568;13.588;2022-10-04T21:23:32;10.42;95.58
68977;SHT31;56029;52.568;13.588;2022-10-04T21:26:21;10.38;95.78
68977;SHT31;56029;52.568;13.588;2022-10-04T21:28:57;10.44;95.70
68977;SHT31;56029;52.568;13.588;2022-10-04T21:31:23;10.38;95.84
68977;SHT31;56029;52.568;13.588;2022-10-04T21:33:49;10.40;95.82
68977;SHT31;56029;52.568;13.588;2022-10-04T21:36:15;10.37;95.92
68977;SHT31;56029;52.568;13.588;2022-10-04T21:38:40;10.38;95.93
68977;SHT31;56029;52.568;13.588;2022-10-04T21:41:06;10.38;95.96
68977;SHT31;56029;52.568;13.588;2022-10-04T21:43:32;10.38;95.93
68977;SHT31;56029;52.568;13.588;2022-10-04T21:45:58;10.37;95.93
68977;SHT31;56029;52.568;13.588;2022-10-04T21:48:25;10.35;95.92
68977;SHT31;56029;52.568;13.588;2022-10-04T21:50:52;10.34;95.91
68977;SHT31;56029;52.568;13.588;2022-10-04T21:53:19;10.40;96.28
68977;SHT31;56029;52.568;13.588;2022-10-04T21:55:44;10.35;96.02
68977;SHT31;56029;52.568;13.588;2022-10-04T21:58:10;10.35;95.90
68977;SHT31;56029;52.568;13.588;2022-10-04T22:00:36;10.33;95.80
68977;SHT31;56029;52.568;13.588;2022-10-04T22:03:01;10.34;95.89
68977;SHT31;56029;52.568;13.588;2022-10-04T22:05:26;10.34;95.87
68977;SHT31;56029;52.568;13.588;2022-10-04T22:07:52;10.34;95.83
68977;SHT31;56029;52.568;13.588;2022-10-04T22:10:18;10.38;95.77
68977;SHT31;56029;52.568;13.588;2022-10-04T22:12:43;10.41;95.66
68977;SHT31;56029;52.568;13.588;2022-10-04T22:15:09;10.40;95.51
68977;SHT31;56029;52.568;13.588;2022-10-04T22:17:34;10.45;95.61
68977;SHT31;56029;52.568;13.588;2022-10-04T22:20:00;10.42;95.54
68977;SHT31;56029;52.568;13.588;2022-10-04T22:22:28;10.40;95.59
68977;SHT31;56029;52.568;13.588;2022-10-04T22:24:54;10.40;95.50
68977;SHT31;56029;52.568;13.588;2022-10-04T22:27:19;10.37;95.64
68977;SHT31;56029;52.568;13.588;2022-10-04T22:29:45;10.37;95.63
68977;SHT31;56029;52.568;13.588;2022-10-04T22:32:31;10.37;95.61
68977;SHT31;56029;52.568;13.588;2022-10-04T22:35:05;10.35;95.66
68977;SHT31;56029;52.568;13.588;2022-10-04T22:37:34;10.34;95.63
68977;SHT31;56029;52.568;13.588;2022-10-04T22:40:00;10.33;95.75
68977;SHT31;56029;52.568;13.588;2022-10-04T22:42:27;10.27;95.60
68977;SHT31;56029;52.568;13.588;2022-10-04T22:44:54;10.27;95.61
68977;SHT31;56029;52.568;13.588;2022-10-04T22:47:20;10.21;95.70
68977;SHT31;56029;52.568;13.588;2022-10-04T22:49:47;10.22;95.58
68977;SHT31;56029;52.568;13.588;2022-10-04T22:52:17;10.21;95.57
68977;SHT31;56029;52.568;13.588;2022-10-04T22:54:45;10.20;95.54
68977;SHT31;56029;52.568;13.588;2022-10-04T22:57:13;10.16;95.62
68977;SHT31;56029;52.568;13.588;2022-10-04T22:59:45;10.16;95.78
68977;SHT31;56029;52.568;13.588;2022-10-04T23:02:14;10.13;95.63
68977;SHT31;56029;52.568;13.588;2022-10-04T23:04:43;10.07;95.84
68977;SHT31;56029;52.568;13.588;2022-10-04T23:07:09;10.03;95.94
68977;SHT31;56029;52.568;13.588;2022-10-04T23:09:34;10.01;95.92
68977;SHT31;56029;52.568;13.588;2022-10-04T23:12:00;9.98;96.03
68977;SHT31;56029;52.568;13.588;2022-10-04T23:14:25;9.97;96.09
68977;SHT31;56029;52.568;13.588;2022-10-04T23:16:51;9.93;96.12